Harbor Beach, Michigan
Current Conditions -  °F | °C
As of 9:14 AM on Wednesday 28 Jan 2015 (Local Time) from KBAX Reporting Station
Clear Clear  
Wind Chill:   Ceiling: Unl
Heat Index:   Visibility: 10mi
Dew Point:   Wind: 0mph
Humidity: 89%   Direction: NA
Pressure: 30.33"   Gusts: NA
Location:  43.84°N, 82.65°W
Report Text: KBAX 281414Z AUTO 00000KT 10SM CLR M14/M16 A3033 RMK AO2 T11431157
Loading
Personal Weather Stations






























Interactive Weather Map New forecast layout! Learn more

10-Day Weather Forecast

Advertisements
Track Severe Weather on mobile